createdAt,value
2023-04-20T00:01:17.149Z,82.67
2023-04-20T00:02:43.289Z,82.68
2023-04-20T00:04:30.620Z,82.60
2023-04-20T00:06:15.534Z,82.79
2023-04-20T00:08:00.340Z,82.58
2023-04-20T00:09:39.205Z,82.47
2023-04-20T00:11:05.939Z,82.50
2023-04-20T00:12:51.238Z,82.50
2023-04-20T00:14:25.150Z,82.57
2023-04-20T00:16:19.375Z,82.68
2023-04-20T00:17:52.382Z,82.69
2023-04-20T00:19:14.632Z,82.52
2023-04-20T00:20:59.545Z,82.59
2023-04-20T00:22:33.363Z,82.36
2023-04-20T00:24:07.114Z,82.54
2023-04-20T00:25:38.197Z,82.50
2023-04-20T00:27:12.207Z,82.40
2023-04-20T00:28:53.765Z,82.53
2023-04-20T00:30:18.060Z,82.30
2023-04-20T00:31:46.178Z,82.40
2023-04-20T00:33:33.702Z,82.58
2023-04-20T00:35:18.755Z,82.41
2023-04-20T00:36:40.100Z,82.52
2023-04-20T00:38:13.876Z,82.57
2023-04-20T00:39:37.733Z,82.42
2023-04-20T00:41:04.359Z,82.54
2023-04-20T00:42:41.104Z,82.36
2023-04-20T00:44:25.111Z,82.72
2023-04-20T00:46:05.721Z,82.70
2023-04-20T00:47:47.603Z,82.73
2023-04-20T00:49:33.723Z,82.84
2023-04-20T00:51:10.026Z,82.85
2023-04-20T00:52:48.827Z,82.87
2023-04-20T00:54:22.178Z,82.87
2023-04-20T00:55:55.259Z,83.04
2023-04-20T00:57:40.906Z,82.82
2023-04-20T00:59:14.851Z,83.31
2023-04-20T01:00:59.980Z,83.12
2023-04-20T01:02:36.318Z,82.98
2023-04-20T01:04:25.787Z,83.10
2023-04-20T01:06:15.316Z,83.28
2023-04-20T01:07:59.970Z,82.93
2023-04-20T01:09:47.724Z,82.83
2023-04-20T01:11:38.407Z,83.04
2023-04-20T01:13:09.704Z,83.02
2023-04-20T01:14:45.467Z,83.01
2023-04-20T01:16:19.637Z,83.01
2023-04-20T01:18:05.901Z,82.86
2023-04-20T01:19:53.515Z,82.89
2023-04-20T01:21:29.346Z,82.73
2023-04-20T01:23:03.153Z,82.78
2023-04-20T01:24:56.408Z,82.68
2023-04-20T01:26:32.567Z,82.64
2023-04-20T01:28:17.850Z,82.61
2023-04-20T01:29:53.927Z,82.51
2023-04-20T01:31:16.248Z,82.77
2023-04-20T01:33:01.342Z,82.55
2023-04-20T01:34:34.955Z,82.53
2023-04-20T01:36:19.978Z,82.37
2023-04-20T01:37:55.150Z,82.33
2023-04-20T01:39:40.155Z,82.32
2023-04-20T01:41:37.387Z,82.13
2023-04-20T01:43:22.696Z,82.13
2023-04-20T01:44:55.899Z,81.94
2023-04-20T01:46:29.254Z,81.82
2023-04-20T01:48:04.893Z,81.99
2023-04-20T01:49:59.507Z,81.95
2023-04-20T01:51:37.579Z,81.92
2023-04-20T01:53:27.772Z,81.89
2023-04-20T01:55:14.497Z,81.99
2023-04-20T01:56:48.235Z,81.81
2023-04-20T01:58:34.113Z,81.79
2023-04-20T02:00:08.950Z,81.63
2023-04-20T02:01:38.591Z,81.56
2023-04-20T02:03:13.189Z,81.25
2023-04-20T02:04:58.333Z,81.40
2023-04-20T02:06:25.170Z,81.44
2023-04-20T02:08:06.144Z,81.36
2023-04-20T02:09:50.090Z,81.31
2023-04-20T02:11:35.313Z,81.16
2023-04-20T02:13:08.733Z,81.22
2023-04-20T02:14:41.928Z,81.07
2023-04-20T02:16:17.802Z,81.04
2023-04-20T02:17:52.806Z,81.06
2023-04-20T02:19:29.118Z,81.07
2023-04-20T02:21:13.997Z,81.06
2023-04-20T02:22:58.695Z,81.00
2023-04-20T02:24:43.864Z,80.91
2023-04-20T02:26:21.714Z,80.87
2023-04-20T02:27:54.862Z,80.86
2023-04-20T02:29:48.538Z,80.75
2023-04-20T02:31:40.817Z,80.67
2023-04-20T02:33:24.743Z,80.81
2023-04-20T02:35:05.144Z,80.67
2023-04-20T02:36:56.308Z,80.81
2023-04-20T02:38:41.391Z,80.91
2023-04-20T02:40:26.866Z,80.82
2023-04-20T02:42:03.983Z,80.99
2023-04-20T02:43:48.804Z,81.04
2023-04-20T02:45:33.753Z,81.10
2023-04-20T02:47:19.568Z,80.93
2023-04-20T02:49:13.017Z,80.89
2023-04-20T02:50:48.705Z,80.48
2023-04-20T02:52:25.670Z,80.44
2023-04-20T02:54:01.969Z,80.78
2023-04-20T02:55:41.969Z,80.78
2023-04-20T02:57:15.752Z,80.23
2023-04-20T02:59:00.861Z,80.18
2023-04-20T03:01:22.251Z,80.18
2023-04-20T03:02:58.131Z,80.20
2023-04-20T03:04:44.422Z,80.15
2023-04-20T03:06:39.680Z,80.26
2023-04-20T03:08:15.437Z,80.27
2023-04-20T03:10:00.920Z,80.30
2023-04-20T03:11:53.167Z,80.47
2023-04-20T03:13:28.966Z,80.49
2023-04-20T03:15:11.153Z,80.48
2023-04-20T03:17:11.495Z,80.53
2023-04-20T03:18:47.317Z,80.51
2023-04-20T03:20:34.801Z,80.76
2023-04-20T03:22:20.049Z,80.63
2023-04-20T03:24:01.758Z,80.90
2023-04-20T03:25:31.163Z,80.86
2023-04-20T03:27:06.945Z,80.92
2023-04-20T03:29:00.209Z,80.45
2023-04-20T03:30:36.584Z,80.74
2023-04-20T03:32:32.081Z,81.05
2023-04-20T03:34:14.291Z,81.18
2023-04-20T03:35:57.431Z,80.87
2023-04-20T03:37:33.751Z,80.92
2023-04-20T03:39:08.794Z,81.52
2023-04-20T03:40:54.252Z,81.20
2023-04-20T03:42:45.154Z,81.47
2023-04-20T03:44:21.220Z,81.15
2023-04-20T03:45:54.453Z,81.51
2023-04-20T03:47:35.581Z,81.28
2023-04-20T03:49:15.568Z,81.38
2023-04-20T03:51:00.258Z,81.45
2023-04-20T03:52:35.688Z,81.55
2023-04-20T03:54:11.100Z,81.42
2023-04-20T03:55:35.538Z,81.17
2023-04-20T03:57:14.418Z,81.37
2023-04-20T03:58:47.701Z,81.29
2023-04-20T04:00:39.103Z,81.63
2023-04-20T04:02:02.227Z,81.75
2023-04-20T04:03:47.530Z,81.78
2023-04-20T04:05:23.324Z,81.69
2023-04-20T04:07:08.897Z,81.63
2023-04-20T04:08:50.501Z,81.92
2023-04-20T04:10:24.239Z,81.97
2023-04-20T04:11:57.582Z,81.64
2023-04-20T04:13:42.862Z,82.10
2023-04-20T04:15:19.627Z,82.04
2023-04-20T04:17:00.855Z,82.03
2023-04-20T04:18:41.686Z,82.20
2023-04-20T04:20:29.409Z,82.17
2023-04-20T04:22:03.988Z,82.05
2023-04-20T04:23:28.834Z,81.85
2023-04-20T04:25:11.743Z,81.98
2023-04-20T04:26:47.619Z,81.95
2023-04-20T04:28:33.308Z,81.68
2023-04-20T04:30:11.540Z,81.63
2023-04-20T04:31:36.194Z,81.58
2023-04-20T04:33:21.791Z,81.55
2023-04-20T04:35:06.991Z,81.44
2023-04-20T04:36:40.403Z,81.53
2023-04-20T04:38:12.603Z,81.41
2023-04-20T04:39:48.601Z,81.37
2023-04-20T04:41:14.868Z,81.19
2023-04-20T04:42:48.188Z,80.97
2023-04-20T04:44:19.775Z,81.31
2023-04-20T04:45:53.230Z,81.07
2023-04-20T04:47:29.513Z,81.07
2023-04-20T04:49:05.385Z,80.82
2023-04-20T04:50:40.826Z,80.94
2023-04-20T04:52:21.923Z,80.84
2023-04-20T04:53:56.729Z,80.84
2023-04-20T04:55:30.435Z,81.18
2023-04-20T04:57:06.387Z,81.04
2023-04-20T04:58:51.064Z,81.13
2023-04-20T05:00:27.469Z,81.02
2023-04-20T05:02:12.999Z,81.00
2023-04-20T05:03:46.784Z,81.13
2023-04-20T05:05:22.811Z,80.94
2023-04-20T05:07:07.992Z,81.10
2023-04-20T05:08:44.543Z,81.00
2023-04-20T05:10:20.342Z,80.99
2023-04-20T05:12:05.289Z,81.22
2023-04-20T05:13:38.629Z,80.96
2023-04-20T05:15:19.532Z,81.00
2023-04-20T05:17:04.232Z,80.88
2023-04-20T05:18:38.937Z,80.86
2023-04-20T05:20:12.593Z,80.88
2023-04-20T05:21:48.228Z,80.97
2023-04-20T05:23:36.768Z,81.05
2023-04-20T05:25:18.202Z,80.73
2023-04-20T05:26:53.569Z,80.67
2023-04-20T05:28:18.625Z,80.38
2023-04-20T05:29:47.436Z,80.47
2023-04-20T05:31:21.261Z,80.30
2023-04-20T05:33:02.131Z,80.61
2023-04-20T05:34:31.419Z,80.66
2023-04-20T05:36:17.599Z,80.92
2023-04-20T05:38:02.436Z,80.87
2023-04-20T05:39:24.448Z,80.65
2023-04-20T05:40:59.814Z,80.50
2023-04-20T05:42:31.524Z,80.10
2023-04-20T05:44:06.991Z,80.09
2023-04-20T05:45:42.609Z,80.11
2023-04-20T05:47:23.432Z,80.00
2023-04-20T05:48:58.890Z,79.81
2023-04-20T05:50:53.442Z,79.45
2023-04-20T05:52:38.368Z,79.41
2023-04-20T05:54:23.501Z,79.32
2023-04-20T05:56:08.457Z,79.23
2023-04-20T05:57:41.817Z,79.36
2023-04-20T05:59:32.272Z,79.38
2023-04-20T06:01:05.191Z,79.79
2023-04-20T06:02:29.418Z,79.52
2023-04-20T06:04:14.122Z,78.87
2023-04-20T06:05:47.763Z,78.74
2023-04-20T06:07:14.182Z,78.54
2023-04-20T06:08:59.520Z,78.17
2023-04-20T06:10:48.951Z,77.45
2023-04-20T06:12:34.074Z,77.58
2023-04-20T06:14:14.996Z,77.82
2023-04-20T06:15:44.160Z,77.30
2023-04-20T06:17:09.181Z,76.95
2023-04-20T06:18:38.283Z,76.95
2023-04-20T06:20:24.049Z,76.68
2023-04-20T06:21:49.735Z,76.57
2023-04-20T06:23:23.371Z,76.37
2023-04-20T06:25:08.353Z,76.25
2023-04-20T06:26:30.117Z,75.93
2023-04-20T06:28:15.203Z,75.87
2023-04-20T06:30:00.286Z,76.38
2023-04-20T06:31:34.084Z,76.37
2023-04-20T06:33:19.203Z,75.58
2023-04-20T06:35:04.689Z,75.74
2023-04-20T06:36:37.976Z,74.56
2023-04-20T06:38:06.876Z,74.58
2023-04-20T06:39:48.160Z,74.13
2023-04-20T06:41:33.798Z,74.15
2023-04-20T06:43:11.893Z,73.88
2023-04-20T06:44:47.385Z,74.28
2023-04-20T06:46:16.843Z,73.93
2023-04-20T06:47:57.607Z,74.35
2023-04-20T06:49:31.228Z,74.58
2023-04-20T06:51:04.748Z,74.44
2023-04-20T06:52:31.231Z,74.16
2023-04-20T06:54:00.483Z,74.12
2023-04-20T06:55:48.716Z,74.26
2023-04-20T06:57:24.722Z,74.09
2023-04-20T06:58:58.092Z,73.66
2023-04-20T07:00:27.824Z,73.28
2023-04-20T07:01:58.895Z,72.76
2023-04-20T07:03:32.829Z,71.87
2023-04-20T07:05:06.237Z,71.06
2023-04-20T07:06:35.467Z,70.71
2023-04-20T07:08:08.855Z,70.35
2023-04-20T07:09:53.481Z,70.17
2023-04-20T07:11:29.709Z,69.52
2023-04-20T07:12:51.027Z,69.39
2023-04-20T07:14:13.313Z,69.71
2023-04-20T07:15:49.085Z,69.15
2023-04-20T07:17:34.304Z,68.67
2023-04-20T07:19:19.801Z,68.68
2023-04-20T07:20:56.182Z,68.54
2023-04-20T07:22:32.485Z,68.56
2023-04-20T07:24:05.890Z,67.13
2023-04-20T07:25:27.814Z,67.34
2023-04-20T07:27:09.054Z,67.29
2023-04-20T07:28:30.751Z,66.92
2023-04-20T07:29:52.273Z,66.84
2023-04-20T07:31:22.027Z,66.33
2023-04-20T07:32:53.597Z,66.80
2023-04-20T07:34:27.710Z,66.09
2023-04-20T07:36:13.394Z,65.80
2023-04-20T07:37:53.841Z,66.29
2023-04-20T07:39:30.231Z,66.29
2023-04-20T07:41:03.855Z,66.05
2023-04-20T07:42:57.419Z,64.82
2023-04-20T07:44:21.757Z,64.83
2023-04-20T07:46:06.644Z,64.29
2023-04-20T07:47:51.623Z,63.50
2023-04-20T07:49:41.733Z,64.14
2023-04-20T07:51:13.678Z,64.12
2023-04-20T07:52:35.802Z,63.57
2023-04-20T07:54:09.511Z,61.98
2023-04-20T07:55:40.918Z,61.21
2023-04-20T07:57:16.372Z,61.68
2023-04-20T07:58:52.379Z,62.18
2023-04-20T08:00:24.484Z,61.68
2023-04-20T08:01:59.895Z,61.95
2023-04-20T08:03:45.518Z,61.36
2023-04-20T08:05:10.062Z,60.61
2023-04-20T08:06:32.904Z,61.72
2023-04-20T08:07:59.361Z,61.51
2023-04-20T08:09:44.721Z,61.35
2023-04-20T08:11:27.727Z,60.94
2023-04-20T08:13:03.340Z,61.19
2023-04-20T08:14:25.278Z,60.54
2023-04-20T08:15:58.142Z,60.62
2023-04-20T08:17:24.603Z,60.95
2023-04-20T08:18:57.957Z,61.15
2023-04-20T08:20:30.851Z,60.10
2023-04-20T08:22:20.029Z,60.13
2023-04-20T08:23:53.324Z,59.54
2023-04-20T08:25:27.373Z,58.74
2023-04-20T08:27:01.613Z,58.10
2023-04-20T08:28:34.933Z,58.08
2023-04-20T08:30:20.542Z,57.84
2023-04-20T08:31:41.877Z,58.12
2023-04-20T08:33:11.514Z,57.55
2023-04-20T08:34:33.884Z,57.95
2023-04-20T08:36:19.442Z,56.76
2023-04-20T08:38:03.754Z,57.81
2023-04-20T08:39:49.898Z,58.75
2023-04-20T08:41:23.197Z,57.10
2023-04-20T08:42:47.304Z,56.99
2023-04-20T08:44:11.472Z,56.86
2023-04-20T08:45:44.665Z,57.60
2023-04-20T08:47:20.159Z,56.89
2023-04-20T08:49:05.198Z,57.48
2023-04-20T08:50:50.523Z,56.99
2023-04-20T08:52:12.234Z,57.78
2023-04-20T08:53:53.943Z,57.53
2023-04-20T08:55:27.338Z,57.89
2023-04-20T08:56:57.042Z,58.38
2023-04-20T08:58:30.569Z,57.52
2023-04-20T09:00:05.762Z,57.09
2023-04-20T09:01:39.072Z,56.98
2023-04-20T09:03:11.187Z,56.73
2023-04-20T09:04:33.262Z,57.22
2023-04-20T09:06:02.953Z,57.40
2023-04-20T09:07:32.061Z,57.71
2023-04-20T09:08:58.170Z,57.75
2023-04-20T09:10:31.636Z,57.48
2023-04-20T09:12:07.700Z,57.53
2023-04-20T09:13:41.589Z,57.17
2023-04-20T09:15:15.219Z,57.84
2023-04-20T09:17:00.787Z,57.52
2023-04-20T09:18:30.263Z,57.47
2023-04-20T09:19:51.958Z,57.81
2023-04-20T09:21:27.746Z,57.66
2023-04-20T09:22:54.226Z,56.68
2023-04-20T09:24:27.712Z,57.23
2023-04-20T09:26:04.028Z,57.34
2023-04-20T09:27:45.023Z,57.26
2023-04-20T09:29:30.387Z,56.74
2023-04-20T09:31:16.789Z,56.43
2023-04-20T09:32:52.390Z,56.81
2023-04-20T09:34:14.565Z,56.72
2023-04-20T09:35:56.043Z,55.76
2023-04-20T09:37:40.718Z,55.95
2023-04-20T09:39:03.771Z,55.07
2023-04-20T09:40:48.696Z,54.67
2023-04-20T09:42:10.954Z,55.08
2023-04-20T09:43:40.167Z,55.57
2023-04-20T09:45:02.599Z,53.79
2023-04-20T09:46:36.087Z,54.86
2023-04-20T09:47:57.834Z,55.13
2023-04-20T09:49:33.397Z,55.28
2023-04-20T09:50:57.099Z,56.54
2023-04-20T09:52:19.257Z,55.45
2023-04-20T09:53:54.817Z,55.14
2023-04-20T09:55:28.369Z,54.90
2023-04-20T09:57:04.625Z,54.25
2023-04-20T09:58:33.403Z,54.08
2023-04-20T09:59:57.319Z,53.49
2023-04-20T10:01:27.220Z,53.69
2023-04-20T10:03:00.777Z,53.48
2023-04-20T10:04:23.736Z,53.82
2023-04-20T10:05:47.574Z,53.21
2023-04-20T10:07:11.994Z,52.27
2023-04-20T10:08:42.131Z,51.27
2023-04-20T10:10:15.571Z,50.99
2023-04-20T10:11:53.975Z,50.44
2023-04-20T10:13:28.827Z,49.80
2023-04-20T10:14:57.729Z,49.12
2023-04-20T10:16:27.046Z,48.50
2023-04-20T10:17:48.856Z,49.84
2023-04-20T10:19:10.641Z,50.20
2023-04-20T10:20:34.773Z,48.65
2023-04-20T10:22:20.071Z,48.36
2023-04-20T10:23:53.631Z,48.97
2023-04-20T10:25:17.747Z,49.18
2023-04-20T10:26:47.240Z,48.85
2023-04-20T10:28:29.268Z,49.18
2023-04-20T10:29:52.917Z,48.90
2023-04-20T10:31:33.828Z,48.79
2023-04-20T10:32:58.011Z,48.03
2023-04-20T10:34:24.629Z,48.42
2023-04-20T10:35:58.995Z,47.38
2023-04-20T10:37:32.894Z,46.66
2023-04-20T10:39:19.531Z,47.37
2023-04-20T10:41:04.691Z,46.39
2023-04-20T10:42:36.097Z,47.43
2023-04-20T10:44:07.623Z,46.00
2023-04-20T10:45:52.363Z,46.61
2023-04-20T10:47:37.540Z,45.99
2023-04-20T10:49:22.510Z,45.28
2023-04-20T10:51:12.961Z,45.16
2023-04-20T10:52:53.366Z,45.33
2023-04-20T10:54:26.961Z,44.80
2023-04-20T10:56:03.209Z,44.68
2023-04-20T10:57:36.462Z,43.98
2023-04-20T10:58:59.898Z,44.33
2023-04-20T11:00:34.982Z,43.70
2023-04-20T11:02:28.733Z,43.78
2023-04-20T11:04:16.194Z,44.07
2023-04-20T11:06:03.588Z,42.68
2023-04-20T11:07:57.597Z,42.54
2023-04-20T11:09:51.020Z,42.76
2023-04-20T11:11:45.371Z,43.26
2023-04-20T11:13:39.212Z,43.78
2023-04-20T11:15:13.644Z,44.20
2023-04-20T11:16:59.042Z,44.61
2023-04-20T11:18:52.763Z,45.01
2023-04-20T11:20:15.165Z,45.43
2023-04-20T11:21:48.336Z,45.06
2023-04-20T11:23:41.966Z,45.86
2023-04-20T11:25:17.928Z,45.80
2023-04-20T11:26:53.799Z,46.67
2023-04-20T11:28:34.979Z,46.85
2023-04-20T11:30:10.237Z,46.71
2023-04-20T11:31:55.333Z,47.22
2023-04-20T11:33:28.964Z,47.85
2023-04-20T11:35:14.231Z,47.63
2023-04-20T11:36:58.973Z,48.04
2023-04-20T11:38:32.397Z,48.36
2023-04-20T11:40:06.078Z,48.70
2023-04-20T11:41:27.727Z,48.37
2023-04-20T11:42:48.963Z,48.65
2023-04-20T11:44:26.028Z,49.13
2023-04-20T11:45:47.859Z,48.91
2023-04-20T11:47:17.211Z,49.58
2023-04-20T11:49:02.190Z,49.30
2023-04-20T11:50:56.146Z,49.50
2023-04-20T11:52:41.115Z,49.30
2023-04-20T11:54:34.663Z,49.90
2023-04-20T11:56:08.764Z,49.93
2023-04-20T11:57:53.503Z,49.20
2023-04-20T11:59:28.271Z,49.38
2023-04-20T12:01:01.191Z,49.63
2023-04-20T12:02:36.669Z,49.45
2023-04-20T12:04:10.331Z,49.74
2023-04-20T12:05:44.321Z,49.46
2023-04-20T12:07:26.585Z,48.54
2023-04-20T12:08:51.116Z,48.77
2023-04-20T12:10:15.122Z,48.73
2023-04-20T12:11:39.768Z,48.74
2023-04-20T12:13:01.697Z,48.84
2023-04-20T12:14:26.904Z,48.81
2023-04-20T12:15:51.012Z,48.80
2023-04-20T12:17:29.610Z,48.74
2023-04-20T12:19:00.666Z,48.72
2023-04-20T12:20:45.828Z,49.03
2023-04-20T12:22:21.753Z,49.18
2023-04-20T12:23:57.400Z,49.19
2023-04-20T12:25:50.690Z,48.62
2023-04-20T12:27:25.629Z,48.81
2023-04-20T12:28:58.863Z,48.39
2023-04-20T12:30:44.107Z,47.45
2023-04-20T12:32:13.395Z,47.13
2023-04-20T12:33:44.533Z,46.53
2023-04-20T12:35:38.242Z,46.43
2023-04-20T12:37:11.491Z,46.99
2023-04-20T12:38:33.557Z,47.37
2023-04-20T12:40:07.141Z,47.20
2023-04-20T12:41:36.510Z,48.41
2023-04-20T12:43:00.665Z,48.07
2023-04-20T12:44:24.785Z,47.72
2023-04-20T12:45:57.919Z,47.68
2023-04-20T12:47:31.817Z,48.08
2023-04-20T12:48:55.638Z,47.63
2023-04-20T12:50:17.517Z,47.46
2023-04-20T12:51:39.398Z,47.69
2023-04-20T12:53:21.334Z,48.25
2023-04-20T12:55:02.146Z,48.80
2023-04-20T12:56:47.164Z,48.98
2023-04-20T12:58:09.095Z,48.40
2023-04-20T12:59:31.016Z,48.55
2023-04-20T13:00:52.453Z,48.53
2023-04-20T13:02:26.379Z,48.57
2023-04-20T13:03:48.826Z,48.67
2023-04-20T13:05:20.632Z,48.54
2023-04-20T13:07:05.936Z,48.71
2023-04-20T13:08:39.601Z,48.46
2023-04-20T13:10:09.028Z,47.71
2023-04-20T13:11:44.471Z,47.95
2023-04-20T13:13:18.389Z,47.17
2023-04-20T13:14:51.658Z,47.47
2023-04-20T13:16:15.978Z,47.24
2023-04-20T13:17:49.130Z,47.12
2023-04-20T13:19:31.118Z,47.36
2023-04-20T13:21:04.813Z,47.26
2023-04-20T13:22:57.554Z,47.57
2023-04-20T13:24:27.608Z,46.67
2023-04-20T13:26:00.757Z,46.61
2023-04-20T13:27:41.769Z,45.66
2023-04-20T13:29:17.511Z,43.42
2023-04-20T13:30:47.038Z,41.28
2023-04-20T13:32:27.989Z,40.32
2023-04-20T13:33:56.530Z,39.87
2023-04-20T13:35:30.513Z,39.45
2023-04-20T13:37:04.153Z,39.17
2023-04-20T13:38:33.304Z,38.36
2023-04-20T13:40:06.864Z,36.65
2023-04-20T13:41:52.193Z,36.79
2023-04-20T13:43:16.229Z,35.77
2023-04-20T13:45:01.037Z,35.10
2023-04-20T13:46:46.024Z,34.18
2023-04-20T13:48:36.363Z,34.63
2023-04-20T13:50:09.484Z,35.09
2023-04-20T13:51:54.138Z,34.26
2023-04-20T13:53:38.369Z,33.96
2023-04-20T13:55:25.005Z,32.80
2023-04-20T13:57:02.381Z,32.30
2023-04-20T13:58:26.940Z,31.66
2023-04-20T14:00:02.518Z,30.99
2023-04-20T14:01:34.645Z,29.87
2023-04-20T14:03:27.222Z,30.08
2023-04-20T14:05:13.233Z,30.82
2023-04-20T14:06:58.328Z,31.15
2023-04-20T14:08:40.620Z,30.90
2023-04-20T14:10:22.346Z,30.91
2023-04-20T14:11:57.742Z,31.66
2023-04-20T14:13:43.164Z,32.24
2023-04-20T14:15:05.512Z,32.28
2023-04-20T14:16:39.977Z,33.52
2023-04-20T14:18:13.616Z,32.55
2023-04-20T14:19:58.361Z,33.41
2023-04-20T14:21:46.747Z,33.58
2023-04-20T14:23:09.609Z,32.20
2023-04-20T14:24:45.301Z,32.69
2023-04-20T14:26:30.808Z,33.01
2023-04-20T14:28:11.785Z,31.62
2023-04-20T14:29:44.864Z,31.03
2023-04-20T14:31:08.989Z,30.86
2023-04-20T14:32:42.585Z,30.10
2023-04-20T14:34:13.087Z,29.58
2023-04-20T14:35:46.456Z,29.35
2023-04-20T14:37:29.435Z,29.21
2023-04-20T14:39:14.542Z,29.59
2023-04-20T14:40:54.786Z,29.59
2023-04-20T14:42:49.435Z,29.81
2023-04-20T14:44:22.991Z,30.69
2023-04-20T14:46:15.936Z,30.10
2023-04-20T14:47:51.568Z,30.05
2023-04-20T14:49:45.409Z,30.93
2023-04-20T14:51:34.464Z,31.43
2023-04-20T14:53:08.123Z,31.24
2023-04-20T14:54:44.091Z,32.14
2023-04-20T14:56:13.330Z,32.07
2023-04-20T14:57:48.914Z,32.71
2023-04-20T14:59:20.324Z,33.21
2023-04-20T15:00:56.172Z,33.22
2023-04-20T15:02:28.054Z,33.99
2023-04-20T15:04:03.882Z,35.18
2023-04-20T15:05:42.017Z,35.76
2023-04-20T15:07:17.663Z,35.97
2023-04-20T15:08:42.376Z,36.31
2023-04-20T15:10:16.158Z,36.45
2023-04-20T15:11:37.631Z,37.22
2023-04-20T15:13:18.520Z,37.62
2023-04-20T15:15:03.680Z,37.14
2023-04-20T15:16:25.281Z,37.92
2023-04-20T15:17:58.555Z,37.77
2023-04-20T15:19:30.260Z,38.23
2023-04-20T15:21:01.186Z,36.69
2023-04-20T15:22:46.263Z,36.59
2023-04-20T15:24:23.119Z,36.20
2023-04-20T15:25:49.497Z,36.65
2023-04-20T15:27:22.889Z,36.50
2023-04-20T15:29:07.545Z,37.49
2023-04-20T15:30:40.978Z,37.73
2023-04-20T15:32:14.403Z,37.56
2023-04-20T15:33:50.557Z,36.84
2023-04-20T15:35:31.298Z,36.39
2023-04-20T15:37:07.652Z,37.32
2023-04-20T15:38:36.818Z,38.52
2023-04-20T15:40:12.731Z,38.36
2023-04-20T15:41:43.771Z,37.84
2023-04-20T15:43:17.424Z,38.21
2023-04-20T15:44:50.721Z,36.91
2023-04-20T15:46:24.232Z,35.35
2023-04-20T15:48:09.193Z,34.48
2023-04-20T15:49:40.455Z,33.96
2023-04-20T15:51:25.508Z,32.65
2023-04-20T15:52:49.681Z,32.71
2023-04-20T15:54:23.690Z,32.31
2023-04-20T15:55:59.468Z,31.98
2023-04-20T15:57:33.729Z,30.79
2023-04-20T15:59:18.713Z,30.63
2023-04-20T16:01:00.056Z,30.36
2023-04-20T16:02:34.450Z,28.88
2023-04-20T16:04:19.977Z,30.19
2023-04-20T16:05:53.864Z,30.30
2023-04-20T16:07:38.212Z,30.71
2023-04-20T16:08:59.748Z,31.35
2023-04-20T16:10:40.688Z,32.23
2023-04-20T16:12:05.470Z,32.72
2023-04-20T16:13:29.299Z,33.60
2023-04-20T16:15:03.691Z,34.09
2023-04-20T16:16:58.468Z,33.79
2023-04-20T16:18:32.292Z,34.63
2023-04-20T16:19:54.033Z,34.93
2023-04-20T16:21:27.492Z,35.08
2023-04-20T16:22:59.360Z,34.57
2023-04-20T16:24:23.105Z,35.04
2023-04-20T16:25:56.308Z,35.66
2023-04-20T16:27:29.740Z,36.14
2023-04-20T16:28:58.935Z,36.43
2023-04-20T16:30:40.055Z,36.83
2023-04-20T16:32:04.617Z,36.61
2023-04-20T16:33:33.761Z,37.05
2023-04-20T16:35:07.885Z,37.62
2023-04-20T16:36:29.473Z,38.08
2023-04-20T16:38:04.807Z,38.19
2023-04-20T16:39:57.990Z,39.04
2023-04-20T16:41:31.813Z,38.78
2023-04-20T16:43:18.226Z,38.28
2023-04-20T16:44:53.918Z,38.31
2023-04-20T16:46:46.872Z,39.19
2023-04-20T16:48:27.800Z,39.00
2023-04-20T16:50:09.017Z,39.22
2023-04-20T16:51:33.261Z,39.83
2023-04-20T16:53:04.501Z,40.53
2023-04-20T16:54:50.423Z,40.47
2023-04-20T16:56:15.063Z,40.41
2023-04-20T16:57:59.985Z,40.47
2023-04-20T16:59:50.357Z,40.48
2023-04-20T17:01:12.420Z,40.23
2023-04-20T17:02:53.033Z,40.56
2023-04-20T17:04:36.083Z,40.34
2023-04-20T17:06:07.044Z,40.89
2023-04-20T17:07:29.174Z,40.61
2023-04-20T17:09:22.467Z,41.72
2023-04-20T17:11:07.248Z,41.91
2023-04-20T17:12:29.084Z,42.32
2023-04-20T17:14:02.636Z,41.68
2023-04-20T17:15:47.690Z,42.29
2023-04-20T17:17:41.494Z,43.38
2023-04-20T17:19:05.467Z,44.47
2023-04-20T17:20:52.176Z,45.09
2023-04-20T17:22:16.551Z,45.50
2023-04-20T17:23:41.004Z,45.47
2023-04-20T17:25:14.726Z,45.71
2023-04-20T17:26:41.445Z,45.96
2023-04-20T17:28:22.444Z,44.68
2023-04-20T17:29:56.356Z,45.48
2023-04-20T17:31:33.399Z,45.75
2023-04-20T17:32:57.188Z,46.09
2023-04-20T17:34:20.429Z,46.36
2023-04-20T17:35:46.662Z,47.01
2023-04-20T17:37:15.952Z,46.75
2023-04-20T17:38:50.096Z,46.99
2023-04-20T17:40:12.150Z,46.77
2023-04-20T17:41:35.565Z,47.23
2023-04-20T17:42:57.068Z,47.32
2023-04-20T17:44:25.953Z,47.73
2023-04-20T17:46:11.162Z,46.56
2023-04-20T17:47:46.884Z,45.89
2023-04-20T17:49:20.414Z,46.74
2023-04-20T17:50:49.684Z,45.64
2023-04-20T17:52:34.765Z,45.14
2023-04-20T17:54:08.391Z,45.52
2023-04-20T17:55:41.973Z,45.63
2023-04-20T17:57:15.413Z,45.71
2023-04-20T17:58:49.145Z,46.34
2023-04-20T18:00:13.496Z,46.33
2023-04-20T18:01:35.910Z,46.32
2023-04-20T18:03:05.285Z,46.07
2023-04-20T18:04:39.109Z,45.96
2023-04-20T18:06:13.468Z,47.59
2023-04-20T18:07:46.602Z,47.07
2023-04-20T18:09:12.725Z,48.07
2023-04-20T18:10:46.188Z,48.31
2023-04-20T18:12:10.507Z,48.01
2023-04-20T18:13:32.171Z,48.35
2023-04-20T18:14:53.544Z,47.84
2023-04-20T18:16:15.989Z,49.08
2023-04-20T18:17:44.621Z,48.00
2023-04-20T18:19:38.326Z,47.93
2023-04-20T18:21:09.770Z,48.52
2023-04-20T18:22:51.383Z,49.06
2023-04-20T18:24:32.061Z,49.14
2023-04-20T18:25:56.289Z,49.75
2023-04-20T18:27:37.026Z,49.85
2023-04-20T18:29:10.649Z,49.73
2023-04-20T18:30:57.659Z,49.61
2023-04-20T18:32:33.003Z,50.00
2023-04-20T18:34:18.171Z,49.41
2023-04-20T18:36:00.382Z,49.94
2023-04-20T18:37:54.154Z,49.45
2023-04-20T18:39:43.452Z,49.55
2023-04-20T18:41:24.186Z,49.50
2023-04-20T18:42:57.780Z,49.15
2023-04-20T18:44:42.171Z,48.88
2023-04-20T18:46:14.056Z,48.26
2023-04-20T18:47:47.143Z,48.70
2023-04-20T18:49:27.960Z,48.03
2023-04-20T18:51:03.615Z,47.86
2023-04-20T18:52:26.315Z,47.98
2023-04-20T18:53:52.736Z,48.06
2023-04-20T18:55:28.791Z,47.86
2023-04-20T18:57:09.932Z,47.72
2023-04-20T18:58:45.585Z,48.02
2023-04-20T19:00:26.786Z,48.02
2023-04-20T19:01:51.120Z,48.03
2023-04-20T19:03:26.814Z,48.15
2023-04-20T19:04:50.992Z,48.06
2023-04-20T19:06:22.342Z,47.85
2023-04-20T19:07:46.977Z,48.14
2023-04-20T19:09:18.373Z,48.33
2023-04-20T19:11:03.370Z,47.95
2023-04-20T19:12:37.104Z,48.10
2023-04-20T19:14:22.425Z,47.85
2023-04-20T19:15:48.886Z,47.75
2023-04-20T19:17:22.409Z,47.98
2023-04-20T19:18:48.377Z,47.90
2023-04-20T19:20:12.305Z,48.10
2023-04-20T19:21:57.440Z,48.25
2023-04-20T19:23:37.973Z,48.25
2023-04-20T19:25:23.118Z,48.36
2023-04-20T19:26:52.312Z,48.64
2023-04-20T19:28:14.297Z,48.35
2023-04-20T19:29:43.261Z,48.40
2023-04-20T19:31:36.829Z,48.17
2023-04-20T19:33:19.531Z,48.53
2023-04-20T19:35:00.309Z,48.39
2023-04-20T19:36:24.401Z,48.43
2023-04-20T19:38:09.165Z,48.49
2023-04-20T19:39:45.547Z,48.47
2023-04-20T19:41:19.411Z,48.45
2023-04-20T19:42:42.322Z,48.69
2023-04-20T19:44:18.800Z,48.93
2023-04-20T19:45:59.349Z,48.77
2023-04-20T19:47:32.557Z,48.68
2023-04-20T19:48:54.414Z,48.97
2023-04-20T19:50:18.516Z,48.90
2023-04-20T19:51:52.118Z,48.95
2023-04-20T19:53:16.506Z,49.20
2023-04-20T19:54:43.077Z,49.31
2023-04-20T19:58:10.648Z,49.01
2023-04-20T19:59:46.073Z,49.51
2023-04-20T20:01:10.708Z,49.56
2023-04-20T20:02:37.730Z,49.60
2023-04-20T20:04:02.325Z,49.34
2023-04-20T20:05:26.383Z,49.89
2023-04-20T20:07:02.138Z,49.59
2023-04-20T20:08:39.197Z,50.01
2023-04-20T20:10:12.666Z,49.74
2023-04-20T20:11:48.804Z,50.28
2023-04-20T20:13:29.905Z,50.32
2023-04-20T20:14:54.354Z,50.05
2023-04-20T20:16:30.191Z,50.22
2023-04-20T20:17:59.347Z,50.11
2023-04-20T20:19:22.008Z,50.31
2023-04-20T20:20:55.619Z,50.32
2023-04-20T20:24:42.689Z,49.76
2023-04-20T20:26:04.814Z,50.26
2023-04-20T20:27:28.744Z,50.21
2023-04-20T20:28:53.463Z,50.22
2023-04-20T20:30:23.006Z,50.25
2023-04-20T20:31:56.554Z,50.35
2023-04-20T20:33:23.568Z,50.26
2023-04-20T20:35:07.365Z,50.29
2023-04-20T20:36:32.027Z,50.00
2023-04-20T20:37:56.210Z,50.07
2023-04-20T20:39:32.349Z,49.78
2023-04-20T20:40:56.457Z,49.69